createdAt,value
2019-05-03T00:02:18.543Z,50.13
2019-05-03T00:04:48.809Z,50.48
2019-05-03T00:07:18.882Z,51.47
2019-05-03T00:09:47.384Z,51.80
2019-05-03T00:12:15.883Z,51.29
2019-05-03T00:14:46.130Z,51.59
2019-05-03T00:17:14.684Z,53.84
2019-05-03T00:19:43.161Z,53.58
2019-05-03T00:22:12.397Z,53.64
2019-05-03T00:24:42.694Z,55.13
2019-05-03T00:27:12.522Z,55.79
2019-05-03T00:29:41.775Z,55.52
2019-05-03T00:32:12.327Z,56.73
2019-05-03T00:34:48.174Z,56.76
2019-05-03T00:37:22.113Z,56.34
2019-05-03T00:40:07.681Z,56.08
2019-05-03T00:42:36.199Z,56.20
2019-05-03T00:45:07.955Z,56.02
2019-05-03T00:47:36.510Z,55.63
2019-05-03T00:50:06.369Z,55.98
2019-05-03T00:52:34.855Z,55.89
2019-05-03T00:55:15.502Z,55.64
2019-05-03T00:57:33.567Z,55.73
2019-05-03T01:00:02.444Z,56.43
2019-05-03T01:02:31.806Z,56.09
2019-05-03T01:05:02.604Z,56.76
2019-05-03T01:07:31.799Z,56.64
2019-05-03T01:10:02.722Z,56.75
2019-05-03T01:12:32.420Z,56.13
2019-05-03T01:15:02.761Z,55.80
2019-05-03T01:17:32.211Z,57.22
2019-05-03T01:20:02.781Z,57.02
2019-05-03T01:22:32.192Z,57.26
2019-05-03T01:25:02.873Z,57.10
2019-05-03T01:27:32.642Z,57.28
2019-05-03T01:30:02.813Z,57.40
2019-05-03T01:32:32.863Z,58.20
2019-05-03T01:35:03.208Z,57.96
2019-05-03T01:37:32.100Z,57.28
2019-05-03T01:40:02.260Z,57.46
2019-05-03T01:42:32.115Z,58.18
2019-05-03T01:45:01.810Z,58.48
2019-05-03T01:47:32.616Z,58.21
2019-05-03T01:50:02.939Z,58.44
2019-05-03T01:52:42.080Z,58.34
2019-05-03T01:55:15.758Z,59.56
2019-05-03T01:57:41.959Z,60.77
2019-05-03T02:00:14.397Z,60.95
2019-05-03T02:02:53.268Z,59.57
2019-05-03T02:05:38.411Z,59.37
2019-05-03T02:08:06.994Z,61.19
2019-05-03T02:10:35.488Z,60.96
2019-05-03T02:13:05.207Z,60.60
2019-05-03T02:15:33.713Z,60.54
2019-05-03T02:18:02.659Z,60.10
2019-05-03T02:20:32.418Z,59.58
2019-05-03T02:23:02.721Z,60.35
2019-05-03T02:25:32.336Z,60.07
2019-05-03T02:28:01.955Z,59.82
2019-05-03T02:30:33.179Z,59.71
2019-05-03T02:33:03.707Z,59.42
2019-05-03T02:35:33.284Z,59.81
2019-05-03T02:38:03.550Z,59.71
2019-05-03T02:40:33.805Z,59.53
2019-05-03T02:43:06.104Z,60.20
2019-05-03T02:45:52.976Z,60.43
2019-05-03T02:48:25.480Z,60.20
2019-05-03T02:50:56.047Z,60.82
2019-05-03T02:53:25.867Z,61.60
2019-05-03T02:55:56.105Z,60.99
2019-05-03T02:58:25.294Z,60.54
2019-05-03T03:01:02.630Z,60.21
2019-05-03T03:03:32.091Z,60.48
2019-05-03T03:06:02.473Z,60.65
2019-05-03T03:08:33.579Z,60.18
2019-05-03T03:11:09.992Z,60.33
2019-05-03T03:13:39.563Z,60.62
2019-05-03T03:16:10.286Z,62.39
2019-05-03T03:18:40.810Z,62.20
2019-05-03T03:21:15.730Z,62.13
2019-05-03T03:24:08.670Z,61.58
2019-05-03T03:26:42.736Z,60.36
2019-05-03T03:29:16.171Z,60.99
2019-05-03T03:31:57.701Z,60.20
2019-05-03T03:34:28.296Z,59.91
2019-05-03T03:37:04.501Z,60.78
2019-05-03T03:39:28.041Z,60.71
2019-05-03T03:41:57.297Z,60.90
2019-05-03T03:44:26.918Z,60.55
2019-05-03T03:46:57.815Z,60.81
2019-05-03T03:49:28.871Z,60.75
2019-05-03T03:52:00.065Z,60.03
2019-05-03T03:54:31.599Z,59.16
2019-05-03T03:57:06.871Z,58.63
2019-05-03T03:59:30.931Z,58.67
2019-05-03T04:01:59.592Z,57.88
2019-05-03T04:04:29.188Z,57.84
2019-05-03T04:07:01.266Z,57.85
2019-05-03T04:09:28.121Z,58.07
2019-05-03T04:11:57.135Z,60.89
2019-05-03T04:14:27.520Z,61.56
2019-05-03T04:17:07.181Z,59.89
2019-05-03T04:19:37.387Z,59.16
2019-05-03T04:22:06.157Z,59.15
2019-05-03T04:24:35.380Z,59.34
2019-05-03T04:27:15.507Z,58.47
2019-05-03T04:29:37.590Z,58.50
2019-05-03T04:32:08.277Z,59.78
2019-05-03T04:34:36.869Z,60.24
2019-05-03T04:37:05.792Z,59.70
2019-05-03T04:39:35.891Z,59.96
2019-05-03T04:42:06.769Z,60.06
2019-05-03T04:44:36.082Z,59.96
2019-05-03T04:47:06.824Z,58.57
2019-05-03T04:49:36.297Z,57.87
2019-05-03T04:52:05.795Z,57.69
2019-05-03T04:54:45.326Z,56.17
2019-05-03T04:57:17.615Z,53.75
2019-05-03T04:59:45.162Z,52.50
2019-05-03T05:02:15.956Z,50.82
2019-05-03T05:04:46.327Z,48.93
2019-05-03T05:07:15.498Z,49.90
2019-05-03T05:09:45.619Z,50.54
2019-05-03T05:12:16.126Z,51.08
2019-05-03T05:14:45.729Z,50.87
2019-05-03T05:17:16.546Z,49.66
2019-05-03T05:19:46.909Z,49.11
2019-05-03T05:22:25.710Z,49.96
2019-05-03T05:24:55.202Z,49.09
2019-05-03T05:27:25.749Z,47.88
2019-05-03T05:29:55.399Z,47.85
2019-05-03T05:32:24.782Z,47.58
2019-05-03T05:34:54.959Z,47.29
2019-05-03T05:37:25.026Z,48.68
2019-05-03T05:39:55.088Z,49.01
2019-05-03T05:42:25.099Z,47.92
2019-05-03T05:44:55.565Z,47.03
2019-05-03T05:47:34.507Z,48.65
2019-05-03T05:50:05.658Z,49.72
2019-05-03T05:52:34.687Z,52.49
2019-05-03T05:55:14.943Z,52.15
2019-05-03T05:57:45.144Z,55.42
2019-05-03T06:00:18.262Z,55.83
2019-05-03T06:02:46.753Z,55.20
2019-05-03T06:05:15.392Z,55.94
2019-05-03T06:07:48.225Z,56.16
2019-05-03T06:10:18.482Z,54.77
2019-05-03T06:12:54.606Z,54.93
2019-05-03T06:15:40.906Z,55.44
2019-05-03T06:18:14.654Z,58.63
2019-05-03T06:20:47.575Z,58.46
2019-05-03T06:23:17.715Z,59.51
2019-05-03T06:25:46.194Z,58.08
2019-05-03T06:28:20.665Z,59.31
2019-05-03T06:31:00.634Z,59.65
2019-05-03T06:33:29.125Z,59.29
2019-05-03T06:35:57.640Z,59.14
2019-05-03T06:38:26.129Z,58.90
2019-05-03T06:40:54.627Z,57.17
2019-05-03T06:43:24.450Z,59.66
2019-05-03T06:45:54.853Z,57.64
2019-05-03T06:48:28.205Z,57.75
2019-05-03T06:50:55.688Z,56.87
2019-05-03T06:53:25.433Z,55.84
2019-05-03T06:55:55.430Z,55.44
2019-05-03T06:58:32.885Z,55.26
2019-05-03T07:01:07.894Z,54.98
2019-05-03T07:03:40.747Z,53.32
2019-05-03T07:06:37.350Z,55.24
2019-05-03T07:09:05.333Z,54.51
2019-05-03T07:11:34.845Z,54.46
2019-05-03T07:14:05.239Z,52.78
2019-05-03T07:16:35.344Z,53.39
2019-05-03T07:19:04.435Z,53.42
2019-05-03T07:21:35.277Z,52.40
2019-05-03T07:24:05.298Z,52.16
2019-05-03T07:26:34.370Z,51.94
2019-05-03T07:29:04.825Z,51.90
2019-05-03T07:31:35.255Z,52.51
2019-05-03T07:34:05.203Z,52.45
2019-05-03T07:36:35.575Z,51.99
2019-05-03T07:39:07.374Z,51.41
2019-05-03T07:41:35.711Z,52.57
2019-05-03T07:44:05.411Z,52.31
2019-05-03T07:46:34.899Z,52.29
2019-05-03T07:49:05.030Z,50.70
2019-05-03T07:51:34.855Z,49.84
2019-05-03T07:54:04.733Z,49.95
2019-05-03T07:56:37.423Z,50.10
2019-05-03T07:59:07.310Z,50.50
2019-05-03T08:01:37.598Z,53.16
2019-05-03T08:04:06.424Z,53.19
2019-05-03T08:06:34.975Z,53.38
2019-05-03T08:09:05.885Z,50.93
2019-05-03T08:11:35.216Z,50.10
2019-05-03T08:14:05.812Z,49.31
2019-05-03T08:16:35.279Z,50.01
2019-05-03T08:19:05.362Z,49.13
2019-05-03T08:21:37.854Z,49.03
2019-05-03T08:24:05.199Z,50.26
2019-05-03T08:26:35.025Z,50.59
2019-05-03T08:29:15.650Z,49.69
2019-05-03T08:31:45.432Z,50.35
2019-05-03T08:34:18.895Z,48.26
2019-05-03T08:37:01.381Z,48.70
2019-05-03T08:39:29.867Z,47.54
2019-05-03T08:42:00.084Z,46.66
2019-05-03T08:44:28.907Z,42.64
2019-05-03T08:46:58.105Z,44.02
2019-05-03T08:49:26.932Z,45.61
2019-05-03T08:51:55.482Z,45.46
2019-05-03T08:54:25.557Z,46.97
2019-05-03T08:56:55.750Z,45.90
2019-05-03T08:59:29.874Z,46.13
2019-05-03T09:01:55.065Z,45.93
2019-05-03T09:04:36.012Z,47.88
2019-05-03T09:06:55.086Z,45.86
2019-05-03T09:09:25.644Z,44.13
2019-05-03T09:11:55.678Z,45.74
2019-05-03T09:14:24.562Z,43.56
2019-05-03T09:16:55.547Z,42.45
2019-05-03T09:19:25.278Z,44.94
2019-05-03T09:21:54.862Z,46.37
2019-05-03T09:24:24.581Z,49.28
2019-05-03T09:26:55.400Z,51.17
2019-05-03T09:29:25.410Z,52.85
2019-05-03T09:31:55.438Z,53.76
2019-05-03T09:34:25.703Z,54.75
2019-05-03T09:36:55.336Z,58.42
2019-05-03T09:39:24.514Z,61.58
2019-05-03T09:41:55.331Z,62.22
2019-05-03T09:44:24.474Z,62.33
2019-05-03T09:46:54.917Z,63.50
2019-05-03T09:49:25.326Z,63.10
2019-05-03T09:51:54.804Z,63.01
2019-05-03T09:54:25.598Z,62.94
2019-05-03T09:56:58.519Z,63.06
2019-05-03T09:59:28.669Z,63.13
2019-05-03T10:01:58.651Z,63.54
2019-05-03T10:04:27.254Z,62.67
2019-05-03T10:06:55.809Z,64.34
2019-05-03T10:09:26.452Z,65.26
2019-05-03T10:11:55.328Z,65.82
2019-05-03T10:14:24.054Z,67.14
2019-05-03T10:17:12.518Z,68.18
2019-05-03T10:19:41.046Z,68.44
2019-05-03T10:22:09.972Z,71.16
2019-05-03T10:24:38.502Z,72.87
2019-05-03T10:27:06.989Z,72.31
2019-05-03T10:29:35.583Z,71.34
2019-05-03T10:32:18.764Z,69.98
2019-05-03T10:34:57.882Z,71.79
2019-05-03T10:37:31.199Z,75.03
2019-05-03T10:40:07.460Z,75.55
2019-05-03T10:42:35.286Z,74.56
2019-05-03T10:45:06.269Z,74.08
2019-05-03T10:47:35.070Z,74.77
2019-05-03T10:50:05.148Z,77.38
2019-05-03T10:52:35.308Z,75.30
2019-05-03T10:55:05.355Z,73.70
2019-05-03T10:57:37.308Z,74.37
2019-05-03T11:00:39.399Z,73.75
2019-05-03T11:02:42.826Z,75.24
2019-05-03T11:05:11.446Z,75.32
2019-05-03T11:07:39.945Z,75.56
2019-05-03T11:10:08.899Z,73.10
2019-05-03T11:12:37.518Z,71.52
2019-05-03T11:15:07.646Z,68.11
2019-05-03T11:17:37.140Z,69.86
2019-05-03T11:20:06.081Z,71.40
2019-05-03T11:22:35.026Z,72.51
2019-05-03T11:25:05.155Z,72.96
2019-05-03T11:27:35.462Z,71.65
2019-05-03T11:30:09.180Z,68.94
2019-05-03T11:32:50.085Z,69.97
2019-05-03T11:35:20.886Z,70.95
2019-05-03T11:38:00.118Z,70.51
2019-05-03T11:40:28.635Z,69.90
2019-05-03T11:42:58.761Z,68.18
2019-05-03T11:45:27.278Z,66.50
2019-05-03T11:47:55.833Z,64.98
2019-05-03T11:50:25.306Z,64.63
2019-05-03T11:52:55.395Z,65.59
2019-05-03T11:55:26.606Z,64.96
2019-05-03T11:57:56.551Z,64.98
2019-05-03T12:00:26.829Z,63.92
2019-05-03T12:02:59.511Z,62.94
2019-05-03T12:05:29.498Z,64.84
2019-05-03T12:07:58.009Z,64.44
2019-05-03T12:10:45.735Z,64.30
2019-05-03T12:13:10.787Z,63.82
2019-05-03T12:15:39.309Z,64.88
2019-05-03T12:18:10.152Z,64.51
2019-05-03T12:20:40.331Z,66.18
2019-05-03T12:23:10.191Z,67.62
2019-05-03T12:25:42.539Z,66.52
2019-05-03T12:28:12.179Z,66.40
2019-05-03T12:30:41.153Z,65.91
2019-05-03T12:33:09.979Z,66.74
2019-05-03T12:35:40.613Z,66.29
2019-05-03T12:38:09.170Z,67.05
2019-05-03T12:40:39.186Z,67.28
2019-05-03T12:43:07.854Z,66.30
2019-05-03T12:45:36.366Z,68.07
2019-05-03T12:48:05.417Z,67.13
2019-05-03T12:50:35.025Z,66.29
2019-05-03T12:53:04.826Z,67.04
2019-05-03T12:55:35.556Z,66.48
2019-05-03T12:58:06.305Z,64.92
2019-05-03T13:00:39.805Z,66.59
2019-05-03T13:03:15.072Z,66.61
2019-05-03T13:05:44.899Z,66.54
2019-05-03T13:08:35.038Z,66.32
2019-05-03T13:11:05.224Z,66.06
2019-05-03T13:13:35.799Z,66.64
2019-05-03T13:16:06.019Z,68.44
2019-05-03T13:18:35.284Z,66.02
2019-05-03T13:21:05.970Z,64.72
2019-05-03T13:23:35.563Z,64.47
2019-05-03T13:26:05.940Z,64.49
2019-05-03T13:28:35.049Z,65.13
2019-05-03T13:31:05.761Z,64.86
2019-05-03T13:33:34.840Z,64.82
2019-05-03T13:36:03.714Z,64.45
2019-05-03T13:38:32.274Z,64.88
2019-05-03T13:41:00.773Z,64.11
2019-05-03T13:43:29.294Z,66.65
2019-05-03T13:45:57.855Z,64.18
2019-05-03T13:48:26.638Z,62.69
2019-05-03T13:50:55.326Z,61.99
2019-05-03T13:53:25.401Z,62.14
2019-05-03T13:55:55.257Z,62.15
2019-05-03T13:58:26.223Z,63.01
2019-05-03T14:00:54.901Z,60.89
2019-05-03T14:03:23.713Z,59.43
2019-05-03T14:05:52.291Z,59.68
2019-05-03T14:08:20.773Z,58.85
2019-05-03T14:10:49.287Z,59.98
2019-05-03T14:13:17.783Z,59.68
2019-05-03T14:15:46.449Z,59.86
2019-05-03T14:18:15.579Z,59.93
2019-05-03T14:20:45.874Z,59.55
2019-05-03T14:23:14.911Z,59.64
2019-05-03T14:25:44.671Z,59.91
2019-05-03T14:28:14.567Z,59.69
2019-05-03T14:30:45.434Z,59.51
2019-05-03T14:33:14.072Z,60.17
2019-05-03T14:35:42.580Z,58.82
2019-05-03T14:38:11.096Z,59.39
2019-05-03T14:40:39.604Z,59.47
2019-05-03T14:43:08.174Z,59.21
2019-05-03T14:45:36.770Z,59.24
2019-05-03T14:48:06.153Z,59.25
2019-05-03T14:50:35.215Z,59.60
2019-05-03T14:53:05.604Z,61.23
2019-05-03T14:55:41.371Z,60.17
2019-05-03T14:58:17.548Z,59.35
2019-05-03T15:00:47.968Z,58.91
2019-05-03T15:03:24.657Z,58.19
2019-05-03T15:05:55.123Z,59.29
2019-05-03T15:08:25.516Z,59.39
2019-05-03T15:10:54.683Z,58.16
2019-05-03T15:13:25.136Z,58.19
2019-05-03T15:15:54.751Z,58.11
2019-05-03T15:18:25.388Z,59.64
2019-05-03T15:20:54.978Z,58.50
2019-05-03T15:23:25.404Z,58.24
2019-05-03T15:25:54.645Z,57.69
2019-05-03T15:28:25.065Z,57.41
2019-05-03T15:30:55.379Z,58.18
2019-05-03T15:33:23.742Z,59.69
2019-05-03T15:35:52.250Z,60.86
2019-05-03T15:38:20.745Z,61.68
2019-05-03T15:40:49.340Z,62.02
2019-05-03T15:43:19.476Z,62.23
2019-05-03T15:45:54.406Z,62.93
2019-05-03T15:48:24.628Z,63.21
2019-05-03T15:50:55.180Z,62.53
2019-05-03T15:53:24.698Z,62.49
2019-05-03T15:55:55.061Z,61.70
2019-05-03T15:58:24.814Z,61.81
2019-05-03T16:00:55.397Z,61.81
2019-05-03T16:03:25.246Z,61.32
2019-05-03T16:05:55.651Z,61.52
2019-05-03T16:08:24.839Z,62.14
2019-05-03T16:10:54.907Z,61.92
2019-05-03T16:13:25.261Z,60.83
2019-05-03T16:15:55.277Z,61.07
2019-05-03T16:18:24.548Z,61.30
2019-05-03T16:20:54.593Z,64.28
2019-05-03T16:23:25.039Z,64.28
2019-05-03T16:25:54.392Z,63.87
2019-05-03T16:28:33.735Z,64.05
2019-05-03T16:31:05.121Z,63.56
2019-05-03T16:33:34.961Z,64.72
2019-05-03T16:36:05.375Z,65.83
2019-05-03T16:38:35.436Z,65.11
2019-05-03T16:41:05.197Z,64.26
2019-05-03T16:43:34.800Z,64.14
2019-05-03T16:46:05.496Z,63.83
2019-05-03T16:48:35.346Z,62.28
2019-05-03T16:51:05.042Z,62.25
2019-05-03T16:53:35.038Z,62.10
2019-05-03T16:56:03.715Z,62.18
2019-05-03T16:58:32.186Z,63.23
2019-05-03T17:01:00.746Z,63.18
2019-05-03T17:03:38.689Z,62.42
2019-05-03T17:06:08.258Z,62.61
2019-05-03T17:08:56.794Z,61.92
2019-05-03T17:11:25.956Z,62.24
2019-05-03T17:13:55.392Z,64.54
2019-05-03T17:16:24.944Z,64.42
2019-05-03T17:18:55.178Z,63.97
2019-05-03T17:21:25.469Z,62.31
2019-05-03T17:23:54.294Z,61.68
2019-05-03T17:26:24.867Z,61.21
2019-05-03T17:28:55.227Z,61.21
2019-05-03T17:31:24.395Z,61.57
2019-05-03T17:33:56.187Z,61.29
2019-05-03T17:36:24.921Z,61.11
2019-05-03T17:38:55.265Z,61.90
2019-05-03T17:41:25.982Z,61.73
2019-05-03T17:43:58.567Z,61.76
2019-05-03T17:46:27.109Z,62.72
2019-05-03T17:48:55.637Z,63.76
2019-05-03T17:51:40.853Z,63.84
2019-05-03T17:54:11.024Z,63.44
2019-05-03T17:56:44.489Z,63.21
2019-05-03T17:59:15.217Z,63.39
2019-05-03T18:02:04.192Z,62.90
2019-05-03T18:04:45.955Z,63.33
2019-05-03T18:07:16.343Z,62.87
2019-05-03T18:09:46.467Z,62.04
2019-05-03T18:12:15.151Z,61.47
2019-05-03T18:14:44.994Z,61.39
2019-05-03T18:17:14.792Z,62.20
2019-05-03T18:19:44.846Z,62.52
2019-05-03T18:22:15.278Z,62.64
2019-05-03T18:24:45.507Z,62.56
2019-05-03T18:27:15.010Z,62.79
2019-05-03T18:29:44.941Z,63.54
2019-05-03T18:32:14.698Z,63.94
2019-05-03T18:34:45.196Z,62.85
2019-05-03T18:37:15.257Z,62.63
2019-05-03T18:39:45.265Z,61.90
2019-05-03T18:42:15.500Z,61.70
2019-05-03T18:44:45.627Z,62.25
2019-05-03T18:47:15.906Z,63.26
2019-05-03T18:49:44.824Z,62.90
2019-05-03T18:52:14.918Z,63.02
2019-05-03T18:54:44.489Z,63.14
2019-05-03T18:57:13.229Z,62.83
2019-05-03T18:59:41.721Z,62.26
2019-05-03T19:02:10.346Z,62.21
2019-05-03T19:04:45.201Z,62.01
2019-05-03T19:07:21.851Z,62.26
2019-05-03T19:09:51.997Z,62.79
2019-05-03T19:12:35.679Z,63.13
2019-05-03T19:15:08.584Z,63.08
2019-05-03T19:17:41.422Z,63.29
2019-05-03T19:20:11.723Z,63.04
2019-05-03T19:22:40.516Z,62.45
2019-05-03T19:25:09.265Z,62.20
2019-05-03T19:27:39.139Z,62.46
2019-05-03T19:30:08.515Z,63.56
2019-05-03T19:32:37.015Z,63.46
2019-05-03T19:35:08.143Z,63.24
2019-05-03T19:37:36.643Z,64.46
2019-05-03T19:40:07.082Z,63.42
2019-05-03T19:42:35.715Z,65.27
2019-05-03T19:45:05.351Z,66.33
2019-05-03T19:47:35.355Z,66.87
2019-05-03T19:50:06.499Z,65.68
2019-05-03T19:52:54.564Z,65.15
2019-05-03T19:55:23.121Z,65.60
2019-05-03T19:57:51.617Z,66.94
2019-05-03T20:00:20.418Z,67.32
2019-05-03T20:02:50.590Z,67.53
2019-05-03T20:05:29.532Z,67.23
2019-05-03T20:08:00.257Z,66.75
2019-05-03T20:10:29.824Z,66.67
2019-05-03T20:12:59.858Z,65.57
2019-05-03T20:15:28.355Z,65.32
2019-05-03T20:18:00.182Z,65.54
2019-05-03T20:20:27.083Z,65.67
2019-05-03T20:22:55.681Z,65.06
2019-05-03T20:25:24.453Z,65.49
2019-05-03T20:27:52.994Z,65.79
2019-05-03T20:30:21.591Z,65.62
2019-05-03T20:32:50.210Z,64.40
2019-05-03T20:35:19.585Z,64.02
2019-05-03T20:37:48.276Z,63.94
2019-05-03T20:40:17.474Z,64.08
2019-05-03T20:42:47.615Z,63.96
2019-05-03T20:45:18.220Z,63.56
2019-05-03T20:47:54.814Z,64.07
2019-05-03T20:50:24.779Z,64.33
2019-05-03T20:52:54.960Z,63.66
2019-05-03T20:55:25.507Z,63.72
2019-05-03T20:57:54.937Z,63.97
2019-05-03T21:00:25.738Z,64.03
2019-05-03T21:02:57.160Z,65.21
2019-05-03T21:05:30.686Z,64.57
2019-05-03T21:07:55.142Z,64.69
2019-05-03T21:10:23.609Z,64.99
2019-05-03T21:12:54.280Z,65.97
2019-05-03T21:15:30.326Z,66.16
2019-05-03T21:18:12.356Z,65.52
2019-05-03T21:20:45.257Z,65.58
2019-05-03T21:23:21.713Z,65.95
2019-05-03T21:26:12.531Z,65.33
2019-05-03T21:28:34.521Z,65.17
2019-05-03T21:31:05.413Z,65.60
2019-05-03T21:33:35.356Z,65.03
2019-05-03T21:36:04.648Z,65.21
2019-05-03T21:38:35.321Z,65.07
2019-05-03T21:41:05.151Z,65.35
2019-05-03T21:43:34.840Z,65.32
2019-05-03T21:46:11.382Z,65.11
2019-05-03T21:48:59.615Z,64.67
2019-05-03T21:51:28.134Z,64.88
2019-05-03T21:53:56.617Z,65.56
2019-05-03T21:56:25.150Z,66.07
2019-05-03T21:58:55.335Z,66.17
2019-05-03T22:01:25.961Z,65.26
2019-05-03T22:03:54.405Z,64.99
2019-05-03T22:06:24.636Z,64.78
2019-05-03T22:08:55.282Z,64.98
2019-05-03T22:11:25.212Z,65.65
2019-05-03T22:13:57.061Z,65.78
2019-05-03T22:16:30.371Z,66.65
2019-05-03T22:18:58.892Z,66.58
2019-05-03T22:21:47.048Z,66.25
2019-05-03T22:24:17.717Z,66.36
2019-05-03T22:27:01.141Z,67.18
2019-05-03T22:29:35.581Z,66.79
2019-05-03T22:32:05.429Z,66.78
2019-05-03T22:34:34.912Z,67.53
2019-05-03T22:37:03.650Z,68.37
2019-05-03T22:39:32.141Z,67.99
2019-05-03T22:42:02.013Z,68.50
2019-05-03T22:44:30.547Z,67.38
2019-05-03T22:46:59.041Z,66.87
2019-05-03T22:49:27.565Z,66.84
2019-05-03T22:51:56.124Z,66.94
2019-05-03T22:54:24.820Z,67.12
2019-05-03T22:56:55.480Z,66.54
2019-05-03T22:59:25.218Z,66.42
2019-05-03T23:01:54.629Z,66.55
2019-05-03T23:04:25.283Z,67.82
2019-05-03T23:06:55.593Z,67.78
2019-05-03T23:09:24.882Z,67.60
2019-05-03T23:11:55.245Z,67.56
2019-05-03T23:14:25.441Z,67.50
2019-05-03T23:16:54.287Z,67.48
2019-05-03T23:19:22.753Z,66.88
2019-05-03T23:21:54.460Z,66.58
2019-05-03T23:24:24.694Z,67.23
2019-05-03T23:26:53.388Z,68.54
2019-05-03T23:29:21.876Z,68.41
2019-05-03T23:31:50.375Z,66.73
2019-05-03T23:34:18.903Z,65.94
2019-05-03T23:36:47.420Z,65.24
2019-05-03T23:39:15.930Z,65.47
2019-05-03T23:41:44.405Z,65.52
2019-05-03T23:44:15.041Z,66.22
2019-05-03T23:46:45.488Z,65.58
2019-05-03T23:49:24.908Z,65.35
2019-05-03T23:51:55.063Z,65.77
2019-05-03T23:54:24.669Z,65.56
2019-05-03T23:56:54.797Z,65.50
2019-05-03T23:59:23.415Z,65.23
